sensor_id;sensor_type;location;lat;lon;timestamp;P1;durP1;ratioP1;P2;durP2;ratioP2
15816;SDS011;8009;50.070;8.232;2022-10-04T00:01:49;6.60;;;6.00;;
15816;SDS011;8009;50.070;8.232;2022-10-04T00:04:21;7.33;;;6.73;;
15816;SDS011;8009;50.070;8.232;2022-10-04T00:06:54;7.60;;;6.90;;
15816;SDS011;8009;50.070;8.232;2022-10-04T00:09:28;7.80;;;6.67;;
15816;SDS011;8009;50.070;8.232;2022-10-04T00:12:01;7.23;;;6.53;;
15816;SDS011;8009;50.070;8.232;2022-10-04T00:14:35;7.07;;;6.37;;
15816;SDS011;8009;50.070;8.232;2022-10-04T00:17:07;6.73;;;6.17;;
15816;SDS011;8009;50.070;8.232;2022-10-04T00:19:40;7.13;;;6.63;;
15816;SDS011;8009;50.070;8.232;2022-10-04T00:22:20;6.83;;;6.33;;
15816;SDS011;8009;50.070;8.232;2022-10-04T00:31:17;7.13;;;6.63;;
15816;SDS011;8009;50.070;8.232;2022-10-04T00:33:49;7.07;;;6.47;;
15816;SDS011;8009;50.070;8.232;2022-10-04T00:36:36;7.57;;;6.97;;
15816;SDS011;8009;50.070;8.232;2022-10-04T00:39:23;6.77;;;6.27;;
15816;SDS011;8009;50.070;8.232;2022-10-04T00:45:05;8.20;;;7.50;;
15816;SDS011;8009;50.070;8.232;2022-10-04T00:47:53;6.80;;;6.30;;
15816;SDS011;8009;50.070;8.232;2022-10-04T00:50:28;7.13;;;6.60;;
15816;SDS011;8009;50.070;8.232;2022-10-04T00:53:01;6.90;;;6.30;;
15816;SDS011;8009;50.070;8.232;2022-10-04T00:55:39;6.43;;;5.77;;
15816;SDS011;8009;50.070;8.232;2022-10-04T00:58:14;7.30;;;6.67;;
15816;SDS011;8009;50.070;8.232;2022-10-04T01:00:48;6.93;;;6.00;;
15816;SDS011;8009;50.070;8.232;2022-10-04T01:03:20;7.07;;;6.47;;
15816;SDS011;8009;50.070;8.232;2022-10-04T01:05:55;6.40;;;5.80;;
15816;SDS011;8009;50.070;8.232;2022-10-04T01:08:27;7.13;;;6.57;;
15816;SDS011;8009;50.070;8.232;2022-10-04T01:11:00;7.17;;;6.67;;
15816;SDS011;8009;50.070;8.232;2022-10-04T01:13:34;6.70;;;6.10;;
15816;SDS011;8009;50.070;8.232;2022-10-04T01:16:08;6.90;;;6.37;;
15816;SDS011;8009;50.070;8.232;2022-10-04T01:18:43;6.60;;;5.87;;
15816;SDS011;8009;50.070;8.232;2022-10-04T01:21:21;8.67;;;7.80;;
15816;SDS011;8009;50.070;8.232;2022-10-04T01:26:48;7.80;;;7.13;;
15816;SDS011;8009;50.070;8.232;2022-10-04T01:29:18;7.93;;;7.23;;
15816;SDS011;8009;50.070;8.232;2022-10-04T01:31:53;7.20;;;6.60;;
15816;SDS011;8009;50.070;8.232;2022-10-04T01:34:23;8.57;;;7.77;;
15816;SDS011;8009;50.070;8.232;2022-10-04T01:36:54;8.67;;;7.30;;
15816;SDS011;8009;50.070;8.232;2022-10-04T01:39:27;7.67;;;7.07;;
15816;SDS011;8009;50.070;8.232;2022-10-04T01:41:57;6.93;;;6.43;;
15816;SDS011;8009;50.070;8.232;2022-10-04T01:44:29;7.93;;;7.13;;
15816;SDS011;8009;50.070;8.232;2022-10-04T01:47:04;6.57;;;5.97;;
15816;SDS011;8009;50.070;8.232;2022-10-04T01:49:37;7.03;;;6.40;;
15816;SDS011;8009;50.070;8.232;2022-10-04T01:52:09;8.60;;;8.00;;
15816;SDS011;8009;50.070;8.232;2022-10-04T01:54:45;7.40;;;6.80;;
15816;SDS011;8009;50.070;8.232;2022-10-04T01:57:17;7.10;;;6.40;;
15816;SDS011;8009;50.070;8.232;2022-10-04T01:59:49;6.73;;;6.20;;
15816;SDS011;8009;50.070;8.232;2022-10-04T02:02:24;6.40;;;5.80;;
15816;SDS011;8009;50.070;8.232;2022-10-04T02:04:58;7.07;;;6.37;;
15816;SDS011;8009;50.070;8.232;2022-10-04T02:07:30;6.43;;;5.83;;
15816;SDS011;8009;50.070;8.232;2022-10-04T02:10:04;6.30;;;5.80;;
15816;SDS011;8009;50.070;8.232;2022-10-04T02:12:37;7.47;;;5.90;;
15816;SDS011;8009;50.070;8.232;2022-10-04T02:15:14;6.60;;;6.03;;
15816;SDS011;8009;50.070;8.232;2022-10-04T02:17:45;6.43;;;5.93;;
15816;SDS011;8009;50.070;8.232;2022-10-04T02:20:16;6.73;;;6.13;;
15816;SDS011;8009;50.070;8.232;2022-10-04T02:22:48;7.30;;;6.60;;
15816;SDS011;8009;50.070;8.232;2022-10-04T02:25:23;6.03;;;5.53;;
15816;SDS011;8009;50.070;8.232;2022-10-04T02:27:52;7.03;;;6.13;;
15816;SDS011;8009;50.070;8.232;2022-10-04T02:30:21;6.80;;;6.20;;
15816;SDS011;8009;50.070;8.232;2022-10-04T02:32:52;7.03;;;6.53;;
15816;SDS011;8009;50.070;8.232;2022-10-04T02:35:22;8.77;;;5.77;;
15816;SDS011;8009;50.070;8.232;2022-10-04T02:37:56;6.13;;;5.60;;
15816;SDS011;8009;50.070;8.232;2022-10-04T02:40:34;7.07;;;6.57;;
15816;SDS011;8009;50.070;8.232;2022-10-04T02:43:08;7.27;;;6.60;;
15816;SDS011;8009;50.070;8.232;2022-10-04T02:45:41;7.17;;;6.67;;
15816;SDS011;8009;50.070;8.232;2022-10-04T02:48:20;7.10;;;6.50;;
15816;SDS011;8009;50.070;8.232;2022-10-04T02:51:00;6.77;;;6.07;;
15816;SDS011;8009;50.070;8.232;2022-10-04T02:53:46;6.30;;;5.80;;
15816;SDS011;8009;50.070;8.232;2022-10-04T02:56:24;7.40;;;6.80;;
15816;SDS011;8009;50.070;8.232;2022-10-04T02:58:52;7.50;;;6.97;;
15816;SDS011;8009;50.070;8.232;2022-10-04T03:01:25;7.50;;;6.30;;
15816;SDS011;8009;50.070;8.232;2022-10-04T03:03:55;6.43;;;5.90;;
15816;SDS011;8009;50.070;8.232;2022-10-04T03:06:27;8.87;;;6.20;;
15816;SDS011;8009;50.070;8.232;2022-10-04T03:08:59;6.93;;;6.37;;
15816;SDS011;8009;50.070;8.232;2022-10-04T03:11:35;6.30;;;5.90;;
15816;SDS011;8009;50.070;8.232;2022-10-04T03:14:07;6.97;;;6.37;;
15816;SDS011;8009;50.070;8.232;2022-10-04T03:16:41;6.60;;;6.03;;
15816;SDS011;8009;50.070;8.232;2022-10-04T03:19:11;9.13;;;6.13;;
15816;SDS011;8009;50.070;8.232;2022-10-04T03:21:43;8.33;;;6.20;;
15816;SDS011;8009;50.070;8.232;2022-10-04T03:24:15;7.23;;;6.63;;
15816;SDS011;8009;50.070;8.232;2022-10-04T03:26:49;7.53;;;6.80;;
15816;SDS011;8009;50.070;8.232;2022-10-04T03:29:20;6.73;;;6.23;;
15816;SDS011;8009;50.070;8.232;2022-10-04T03:31:52;6.53;;;6.00;;
15816;SDS011;8009;50.070;8.232;2022-10-04T03:34:23;7.23;;;6.67;;
15816;SDS011;8009;50.070;8.232;2022-10-04T03:36:54;10.10;;;6.00;;
15816;SDS011;8009;50.070;8.232;2022-10-04T03:39:27;6.07;;;5.57;;
15816;SDS011;8009;50.070;8.232;2022-10-04T03:42:03;7.50;;;6.17;;
15816;SDS011;8009;50.070;8.232;2022-10-04T03:44:36;6.33;;;5.73;;
15816;SDS011;8009;50.070;8.232;2022-10-04T03:47:06;7.57;;;6.97;;
15816;SDS011;8009;50.070;8.232;2022-10-04T03:49:37;7.30;;;6.40;;
15816;SDS011;8009;50.070;8.232;2022-10-04T03:52:08;7.00;;;6.40;;
15816;SDS011;8009;50.070;8.232;2022-10-04T03:54:44;6.20;;;5.70;;
15816;SDS011;8009;50.070;8.232;2022-10-04T03:57:16;7.13;;;6.53;;
15816;SDS011;8009;50.070;8.232;2022-10-04T03:59:45;6.43;;;5.73;;
15816;SDS011;8009;50.070;8.232;2022-10-04T04:02:15;7.07;;;6.57;;
15816;SDS011;8009;50.070;8.232;2022-10-04T04:04:54;6.33;;;5.80;;
15816;SDS011;8009;50.070;8.232;2022-10-04T04:07:32;8.13;;;5.83;;
15816;SDS011;8009;50.070;8.232;2022-10-04T04:10:10;6.90;;;6.30;;
15816;SDS011;8009;50.070;8.232;2022-10-04T04:12:48;6.97;;;6.37;;
15816;SDS011;8009;50.070;8.232;2022-10-04T04:15:22;7.00;;;6.30;;
15816;SDS011;8009;50.070;8.232;2022-10-04T04:17:55;8.73;;;6.50;;
15816;SDS011;8009;50.070;8.232;2022-10-04T04:20:29;8.00;;;7.30;;
15816;SDS011;8009;50.070;8.232;2022-10-04T04:23:01;9.27;;;6.67;;
15816;SDS011;8009;50.070;8.232;2022-10-04T04:25:36;6.77;;;6.17;;
15816;SDS011;8009;50.070;8.232;2022-10-04T04:28:10;7.27;;;6.67;;
15816;SDS011;8009;50.070;8.232;2022-10-04T04:30:49;6.87;;;5.53;;
15816;SDS011;8009;50.070;8.232;2022-10-04T04:33:22;8.47;;;7.10;;
15816;SDS011;8009;50.070;8.232;2022-10-04T04:36:01;6.40;;;5.80;;
15816;SDS011;8009;50.070;8.232;2022-10-04T04:38:31;8.20;;;7.50;;
15816;SDS011;8009;50.070;8.232;2022-10-04T04:41:05;6.50;;;6.00;;
15816;SDS011;8009;50.070;8.232;2022-10-04T04:43:41;6.67;;;6.17;;
15816;SDS011;8009;50.070;8.232;2022-10-04T04:46:10;7.17;;;6.40;;
15816;SDS011;8009;50.070;8.232;2022-10-04T04:48:41;6.27;;;5.87;;
15816;SDS011;8009;50.070;8.232;2022-10-04T04:51:11;7.10;;;6.60;;
15816;SDS011;8009;50.070;8.232;2022-10-04T04:53:46;10.32;;;7.90;;
15816;SDS011;8009;50.070;8.232;2022-10-04T04:56:17;7.30;;;6.70;;
15816;SDS011;8009;50.070;8.232;2022-10-04T04:58:51;7.67;;;6.77;;
15816;SDS011;8009;50.070;8.232;2022-10-04T05:01:24;6.67;;;6.17;;
15816;SDS011;8009;50.070;8.232;2022-10-04T05:03:58;6.80;;;6.30;;
15816;SDS011;8009;50.070;8.232;2022-10-04T05:06:28;8.97;;;6.30;;
15816;SDS011;8009;50.070;8.232;2022-10-04T05:08:58;7.07;;;6.47;;
15816;SDS011;8009;50.070;8.232;2022-10-04T05:11:27;7.13;;;6.63;;
15816;SDS011;8009;50.070;8.232;2022-10-04T05:14:01;17.20;;;15.48;;
15816;SDS011;8009;50.070;8.232;2022-10-04T05:16:35;8.20;;;7.50;;
15816;SDS011;8009;50.070;8.232;2022-10-04T05:19:07;8.00;;;6.80;;
15816;SDS011;8009;50.070;8.232;2022-10-04T05:21:41;7.33;;;6.63;;
15816;SDS011;8009;50.070;8.232;2022-10-04T05:24:12;7.63;;;6.97;;
15816;SDS011;8009;50.070;8.232;2022-10-04T05:29:24;6.97;;;6.50;;
15816;SDS011;8009;50.070;8.232;2022-10-04T05:32:07;8.13;;;7.33;;
15816;SDS011;8009;50.070;8.232;2022-10-04T05:34:49;9.10;;;6.73;;
15816;SDS011;8009;50.070;8.232;2022-10-04T05:37:27;10.00;;;6.37;;
15816;SDS011;8009;50.070;8.232;2022-10-04T05:40:14;7.10;;;6.50;;
15816;SDS011;8009;50.070;8.232;2022-10-04T05:42:52;8.00;;;7.20;;
15816;SDS011;8009;50.070;8.232;2022-10-04T05:45:25;7.83;;;7.20;;
15816;SDS011;8009;50.070;8.232;2022-10-04T05:47:55;15.80;;;12.20;;
15816;SDS011;8009;50.070;8.232;2022-10-04T05:50:28;7.83;;;7.23;;
15816;SDS011;8009;50.070;8.232;2022-10-04T05:53:20;7.70;;;7.07;;
15816;SDS011;8009;50.070;8.232;2022-10-04T05:55:54;7.63;;;7.03;;
15816;SDS011;8009;50.070;8.232;2022-10-04T05:58:33;8.00;;;6.87;;
15816;SDS011;8009;50.070;8.232;2022-10-04T06:01:29;8.20;;;7.40;;
15816;SDS011;8009;50.070;8.232;2022-10-04T06:04:12;8.33;;;6.77;;
15816;SDS011;8009;50.070;8.232;2022-10-04T06:06:49;7.40;;;6.63;;
15816;SDS011;8009;50.070;8.232;2022-10-04T06:09:27;6.83;;;6.20;;
15816;SDS011;8009;50.070;8.232;2022-10-04T06:12:08;7.30;;;6.60;;
15816;SDS011;8009;50.070;8.232;2022-10-04T06:17:51;7.97;;;7.27;;
15816;SDS011;8009;50.070;8.232;2022-10-04T06:20:40;7.47;;;6.77;;
15816;SDS011;8009;50.070;8.232;2022-10-04T06:23:25;8.57;;;7.77;;
15816;SDS011;8009;50.070;8.232;2022-10-04T06:25:57;7.00;;;6.50;;
15816;SDS011;8009;50.070;8.232;2022-10-04T06:28:31;7.47;;;6.77;;
15816;SDS011;8009;50.070;8.232;2022-10-04T06:34:26;7.20;;;6.73;;
15816;SDS011;8009;50.070;8.232;2022-10-04T06:37:26;7.30;;;6.70;;
15816;SDS011;8009;50.070;8.232;2022-10-04T06:40:08;8.00;;;7.40;;
15816;SDS011;8009;50.070;8.232;2022-10-04T06:42:59;7.03;;;6.43;;
15816;SDS011;8009;50.070;8.232;2022-10-04T06:45:47;7.03;;;6.33;;
15816;SDS011;8009;50.070;8.232;2022-10-04T06:48:34;7.40;;;6.70;;
15816;SDS011;8009;50.070;8.232;2022-10-04T06:51:26;6.13;;;5.67;;
15816;SDS011;8009;50.070;8.232;2022-10-04T06:54:12;6.17;;;5.77;;
15816;SDS011;8009;50.070;8.232;2022-10-04T06:57:03;6.47;;;5.90;;
15816;SDS011;8009;50.070;8.232;2022-10-04T06:59:56;7.23;;;6.73;;
15816;SDS011;8009;50.070;8.232;2022-10-04T07:02:33;6.73;;;6.17;;
15816;SDS011;8009;50.070;8.232;2022-10-04T07:05:11;7.23;;;6.73;;
15816;SDS011;8009;50.070;8.232;2022-10-04T07:08:01;7.05;;;6.47;;
15816;SDS011;8009;50.070;8.232;2022-10-04T07:10:38;7.20;;;6.70;;
15816;SDS011;8009;50.070;8.232;2022-10-04T07:13:19;7.47;;;6.97;;
15816;SDS011;8009;50.070;8.232;2022-10-04T07:15:59;6.83;;;6.10;;
15816;SDS011;8009;50.070;8.232;2022-10-04T07:18:33;6.57;;;5.97;;
15816;SDS011;8009;50.070;8.232;2022-10-04T07:21:08;6.97;;;6.40;;
15816;SDS011;8009;50.070;8.232;2022-10-04T07:23:45;6.80;;;6.20;;
15816;SDS011;8009;50.070;8.232;2022-10-04T07:26:18;7.90;;;7.23;;
15816;SDS011;8009;50.070;8.232;2022-10-04T07:28:53;7.10;;;6.60;;
15816;SDS011;8009;50.070;8.232;2022-10-04T07:31:37;7.87;;;7.00;;
15816;SDS011;8009;50.070;8.232;2022-10-04T07:34:08;7.43;;;6.93;;
15816;SDS011;8009;50.070;8.232;2022-10-04T07:36:40;8.43;;;7.53;;
15816;SDS011;8009;50.070;8.232;2022-10-04T07:39:16;8.33;;;7.67;;
15816;SDS011;8009;50.070;8.232;2022-10-04T07:41:49;9.93;;;7.90;;
15816;SDS011;8009;50.070;8.232;2022-10-04T07:44:23;8.73;;;8.13;;
15816;SDS011;8009;50.070;8.232;2022-10-04T07:47:04;7.97;;;7.47;;
15816;SDS011;8009;50.070;8.232;2022-10-04T07:49:40;7.93;;;7.33;;
15816;SDS011;8009;50.070;8.232;2022-10-04T07:58:14;8.43;;;7.73;;
15816;SDS011;8009;50.070;8.232;2022-10-04T08:00:53;8.53;;;7.73;;
15816;SDS011;8009;50.070;8.232;2022-10-04T08:03:33;8.97;;;8.23;;
15816;SDS011;8009;50.070;8.232;2022-10-04T08:06:15;9.40;;;8.53;;
15816;SDS011;8009;50.070;8.232;2022-10-04T08:09:00;9.83;;;8.97;;
15816;SDS011;8009;50.070;8.232;2022-10-04T08:11:48;8.63;;;7.83;;
15816;SDS011;8009;50.070;8.232;2022-10-04T08:14:33;10.47;;;9.57;;
15816;SDS011;8009;50.070;8.232;2022-10-04T08:17:18;9.70;;;9.00;;
15816;SDS011;8009;50.070;8.232;2022-10-04T08:19:56;10.73;;;9.60;;
15816;SDS011;8009;50.070;8.232;2022-10-04T08:22:32;9.93;;;9.10;;
15816;SDS011;8009;50.070;8.232;2022-10-04T08:25:20;10.90;;;10.07;;
15816;SDS011;8009;50.070;8.232;2022-10-04T08:28:02;9.40;;;8.50;;
15816;SDS011;8009;50.070;8.232;2022-10-04T08:30:53;11.07;;;10.07;;
15816;SDS011;8009;50.070;8.232;2022-10-04T08:33:38;11.17;;;9.40;;
15816;SDS011;8009;50.070;8.232;2022-10-04T08:36:18;10.77;;;9.97;;
15816;SDS011;8009;50.070;8.232;2022-10-04T08:38:57;11.00;;;10.03;;
15816;SDS011;8009;50.070;8.232;2022-10-04T08:41:33;10.20;;;9.23;;
15816;SDS011;8009;50.070;8.232;2022-10-04T08:44:38;10.77;;;9.87;;
15816;SDS011;8009;50.070;8.232;2022-10-04T08:47:46;10.47;;;9.57;;
15816;SDS011;8009;50.070;8.232;2022-10-04T08:50:47;11.97;;;10.97;;
15816;SDS011;8009;50.070;8.232;2022-10-04T08:53:51;11.30;;;10.23;;
15816;SDS011;8009;50.070;8.232;2022-10-04T08:56:54;11.40;;;10.33;;
15816;SDS011;8009;50.070;8.232;2022-10-04T08:59:43;11.83;;;10.83;;
15816;SDS011;8009;50.070;8.232;2022-10-04T09:02:43;11.77;;;10.67;;
15816;SDS011;8009;50.070;8.232;2022-10-04T09:05:32;12.20;;;11.10;;
15816;SDS011;8009;50.070;8.232;2022-10-04T09:14:43;12.83;;;11.63;;
15816;SDS011;8009;50.070;8.232;2022-10-04T09:17:28;14.90;;;13.70;;
15816;SDS011;8009;50.070;8.232;2022-10-04T09:20:14;17.03;;;15.53;;
15816;SDS011;8009;50.070;8.232;2022-10-04T09:23:00;16.07;;;13.03;;
15816;SDS011;8009;50.070;8.232;2022-10-04T09:25:50;15.43;;;13.93;;
15816;SDS011;8009;50.070;8.232;2022-10-04T09:34:43;12.73;;;11.70;;
15816;SDS011;8009;50.070;8.232;2022-10-04T09:49:51;16.60;;;15.00;;
15816;SDS011;8009;50.070;8.232;2022-10-04T09:52:44;15.57;;;14.27;;
15816;SDS011;8009;50.070;8.232;2022-10-04T09:55:33;13.93;;;12.73;;
15816;SDS011;8009;50.070;8.232;2022-10-04T09:58:15;13.87;;;12.47;;
15816;SDS011;8009;50.070;8.232;2022-10-04T10:00:58;12.10;;;10.97;;
15816;SDS011;8009;50.070;8.232;2022-10-04T10:06:43;14.20;;;12.97;;
15816;SDS011;8009;50.070;8.232;2022-10-04T10:09:39;14.67;;;12.87;;
15816;SDS011;8009;50.070;8.232;2022-10-04T10:12:35;13.17;;;12.07;;
15816;SDS011;8009;50.070;8.232;2022-10-04T10:15:30;14.47;;;12.97;;
15816;SDS011;8009;50.070;8.232;2022-10-04T10:18:10;14.97;;;13.50;;
15816;SDS011;8009;50.070;8.232;2022-10-04T10:26:48;16.93;;;15.47;;
15816;SDS011;8009;50.070;8.232;2022-10-04T10:29:38;18.00;;;16.30;;
15816;SDS011;8009;50.070;8.232;2022-10-04T10:32:26;19.47;;;17.77;;
15816;SDS011;8009;50.070;8.232;2022-10-04T10:35:14;18.83;;;16.87;;
15816;SDS011;8009;50.070;8.232;2022-10-04T10:37:58;17.50;;;15.70;;
15816;SDS011;8009;50.070;8.232;2022-10-04T10:43:49;17.23;;;15.73;;
15816;SDS011;8009;50.070;8.232;2022-10-04T10:46:37;16.53;;;15.23;;
15816;SDS011;8009;50.070;8.232;2022-10-04T10:49:19;16.00;;;14.57;;
15816;SDS011;8009;50.070;8.232;2022-10-04T10:55:15;14.13;;;12.97;;
15816;SDS011;8009;50.070;8.232;2022-10-04T11:04:26;13.87;;;12.77;;
15816;SDS011;8009;50.070;8.232;2022-10-04T11:13:37;9.33;;;8.43;;
15816;SDS011;8009;50.070;8.232;2022-10-04T11:16:33;10.27;;;9.40;;
15816;SDS011;8009;50.070;8.232;2022-10-04T11:19:28;10.23;;;9.40;;
15816;SDS011;8009;50.070;8.232;2022-10-04T11:25:40;11.70;;;10.87;;
15816;SDS011;8009;50.070;8.232;2022-10-04T11:28:30;10.73;;;9.93;;
15816;SDS011;8009;50.070;8.232;2022-10-04T11:34:36;9.77;;;8.77;;
15816;SDS011;8009;50.070;8.232;2022-10-04T11:37:38;15.63;;;14.13;;
15816;SDS011;8009;50.070;8.232;2022-10-04T11:40:25;14.47;;;12.03;;
15816;SDS011;8009;50.070;8.232;2022-10-04T11:43:10;9.83;;;9.03;;
15816;SDS011;8009;50.070;8.232;2022-10-04T11:46:02;8.53;;;7.80;;
15816;SDS011;8009;50.070;8.232;2022-10-04T11:48:45;9.40;;;8.47;;
15816;SDS011;8009;50.070;8.232;2022-10-04T11:54:33;9.27;;;8.37;;
15816;SDS011;8009;50.070;8.232;2022-10-04T11:57:22;9.60;;;8.90;;
15816;SDS011;8009;50.070;8.232;2022-10-04T11:59:58;9.40;;;8.47;;
15816;SDS011;8009;50.070;8.232;2022-10-04T12:08:22;10.23;;;9.27;;
15816;SDS011;8009;50.070;8.232;2022-10-04T12:14:13;9.27;;;8.47;;
15816;SDS011;8009;50.070;8.232;2022-10-04T12:17:00;10.23;;;9.43;;
15816;SDS011;8009;50.070;8.232;2022-10-04T12:19:56;10.43;;;9.53;;
15816;SDS011;8009;50.070;8.232;2022-10-04T12:23:04;9.13;;;8.47;;
15816;SDS011;8009;50.070;8.232;2022-10-04T12:26:08;9.73;;;8.73;;
15816;SDS011;8009;50.070;8.232;2022-10-04T12:28:55;10.23;;;9.33;;
15816;SDS011;8009;50.070;8.232;2022-10-04T12:31:30;7.47;;;6.97;;
15816;SDS011;8009;50.070;8.232;2022-10-04T12:34:07;9.37;;;8.57;;
15816;SDS011;8009;50.070;8.232;2022-10-04T12:39:49;9.73;;;9.00;;
15816;SDS011;8009;50.070;8.232;2022-10-04T12:42:27;9.47;;;8.67;;
15816;SDS011;8009;50.070;8.232;2022-10-04T12:48:07;9.07;;;8.13;;
15816;SDS011;8009;50.070;8.232;2022-10-04T12:50:48;9.47;;;8.60;;
15816;SDS011;8009;50.070;8.232;2022-10-04T12:53:32;8.23;;;7.60;;
15816;SDS011;8009;50.070;8.232;2022-10-04T12:56:16;7.83;;;7.03;;
15816;SDS011;8009;50.070;8.232;2022-10-04T12:59:10;9.07;;;8.17;;
15816;SDS011;8009;50.070;8.232;2022-10-04T13:01:54;7.63;;;7.07;;
15816;SDS011;8009;50.070;8.232;2022-10-04T13:04:33;8.00;;;7.40;;
15816;SDS011;8009;50.070;8.232;2022-10-04T13:07:14;8.67;;;8.17;;
15816;SDS011;8009;50.070;8.232;2022-10-04T13:09:56;8.50;;;7.70;;
15816;SDS011;8009;50.070;8.232;2022-10-04T13:12:58;7.80;;;7.30;;
15816;SDS011;8009;50.070;8.232;2022-10-04T13:15:36;7.27;;;6.87;;
15816;SDS011;8009;50.070;8.232;2022-10-04T13:18:11;8.47;;;7.77;;
15816;SDS011;8009;50.070;8.232;2022-10-04T13:20:50;7.83;;;7.23;;
15816;SDS011;8009;50.070;8.232;2022-10-04T13:23:32;7.77;;;7.17;;
15816;SDS011;8009;50.070;8.232;2022-10-04T13:26:12;8.23;;;7.23;;
15816;SDS011;8009;50.070;8.232;2022-10-04T13:28:53;7.73;;;7.23;;
15816;SDS011;8009;50.070;8.232;2022-10-04T13:31:30;9.30;;;8.50;;
15816;SDS011;8009;50.070;8.232;2022-10-04T13:34:04;8.33;;;7.77;;
15816;SDS011;8009;50.070;8.232;2022-10-04T13:36:49;8.23;;;7.63;;
15816;SDS011;8009;50.070;8.232;2022-10-04T13:39:42;7.70;;;7.10;;
15816;SDS011;8009;50.070;8.232;2022-10-04T13:45:30;7.70;;;7.20;;
15816;SDS011;8009;50.070;8.232;2022-10-04T13:48:25;8.10;;;7.43;;
15816;SDS011;8009;50.070;8.232;2022-10-04T13:51:22;8.53;;;7.83;;
15816;SDS011;8009;50.070;8.232;2022-10-04T13:54:04;7.93;;;7.43;;
15816;SDS011;8009;50.070;8.232;2022-10-04T13:56:57;7.83;;;7.33;;
15816;SDS011;8009;50.070;8.232;2022-10-04T13:59:40;8.43;;;7.93;;
15816;SDS011;8009;50.070;8.232;2022-10-04T14:02:24;7.45;;;6.95;;
15816;SDS011;8009;50.070;8.232;2022-10-04T14:08:35;7.37;;;6.77;;
15816;SDS011;8009;50.070;8.232;2022-10-04T14:21:12;7.47;;;6.83;;
15816;SDS011;8009;50.070;8.232;2022-10-04T14:24:06;6.10;;;5.60;;
15816;SDS011;8009;50.070;8.232;2022-10-04T14:30:11;9.03;;;8.43;;
15816;SDS011;8009;50.070;8.232;2022-10-04T14:36:02;7.50;;;7.00;;
15816;SDS011;8009;50.070;8.232;2022-10-04T14:39:06;6.50;;;6.00;;
15816;SDS011;8009;50.070;8.232;2022-10-04T14:45:02;8.03;;;7.47;;
15816;SDS011;8009;50.070;8.232;2022-10-04T14:51:13;7.90;;;7.20;;
15816;SDS011;8009;50.070;8.232;2022-10-04T14:53:55;8.23;;;7.63;;
15816;SDS011;8009;50.070;8.232;2022-10-04T14:59:30;7.60;;;7.00;;
15816;SDS011;8009;50.070;8.232;2022-10-04T15:02:22;7.20;;;6.70;;
15816;SDS011;8009;50.070;8.232;2022-10-04T15:05:24;6.23;;;5.83;;
15816;SDS011;8009;50.070;8.232;2022-10-04T15:08:11;7.80;;;7.03;;
15816;SDS011;8009;50.070;8.232;2022-10-04T15:10:51;7.37;;;6.70;;
15816;SDS011;8009;50.070;8.232;2022-10-04T15:13:23;7.37;;;6.70;;
15816;SDS011;8009;50.070;8.232;2022-10-04T15:15:59;7.55;;;7.00;;
15816;SDS011;8009;50.070;8.232;2022-10-04T15:18:47;7.87;;;7.27;;
15816;SDS011;8009;50.070;8.232;2022-10-04T15:21:29;9.60;;;8.17;;
15816;SDS011;8009;50.070;8.232;2022-10-04T15:24:18;8.97;;;8.07;;
15816;SDS011;8009;50.070;8.232;2022-10-04T15:30:00;7.40;;;6.83;;
15816;SDS011;8009;50.070;8.232;2022-10-04T15:32:39;8.10;;;7.30;;
15816;SDS011;8009;50.070;8.232;2022-10-04T15:35:18;7.43;;;6.93;;
15816;SDS011;8009;50.070;8.232;2022-10-04T15:37:56;8.33;;;7.60;;
15816;SDS011;8009;50.070;8.232;2022-10-04T15:40:40;10.00;;;9.10;;
15816;SDS011;8009;50.070;8.232;2022-10-04T15:43:26;9.07;;;8.17;;
15816;SDS011;8009;50.070;8.232;2022-10-04T15:49:07;8.43;;;7.00;;
15816;SDS011;8009;50.070;8.232;2022-10-04T15:52:05;8.37;;;7.73;;
15816;SDS011;8009;50.070;8.232;2022-10-04T15:54:43;8.30;;;7.53;;
15816;SDS011;8009;50.070;8.232;2022-10-04T15:57:34;9.57;;;8.73;;
15816;SDS011;8009;50.070;8.232;2022-10-04T16:00:19;8.57;;;7.88;;
15816;SDS011;8009;50.070;8.232;2022-10-04T16:03:03;8.47;;;7.80;;
15816;SDS011;8009;50.070;8.232;2022-10-04T16:05:48;8.03;;;7.33;;
15816;SDS011;8009;50.070;8.232;2022-10-04T16:08:31;8.23;;;7.50;;
15816;SDS011;8009;50.070;8.232;2022-10-04T16:14:23;9.57;;;8.67;;
15816;SDS011;8009;50.070;8.232;2022-10-04T16:17:16;9.13;;;8.13;;
15816;SDS011;8009;50.070;8.232;2022-10-04T16:20:00;8.33;;;7.63;;
15816;SDS011;8009;50.070;8.232;2022-10-04T16:25:48;8.47;;;7.77;;
15816;SDS011;8009;50.070;8.232;2022-10-04T16:28:20;8.67;;;7.97;;
15816;SDS011;8009;50.070;8.232;2022-10-04T16:33:52;8.90;;;8.07;;
15816;SDS011;8009;50.070;8.232;2022-10-04T16:36:27;9.53;;;8.57;;
15816;SDS011;8009;50.070;8.232;2022-10-04T16:39:11;10.40;;;9.50;;
15816;SDS011;8009;50.070;8.232;2022-10-04T16:42:16;9.10;;;8.17;;
15816;SDS011;8009;50.070;8.232;2022-10-04T16:44:50;8.87;;;8.03;;
15816;SDS011;8009;50.070;8.232;2022-10-04T16:47:26;9.37;;;8.60;;
15816;SDS011;8009;50.070;8.232;2022-10-04T16:49:58;9.17;;;8.47;;
15816;SDS011;8009;50.070;8.232;2022-10-04T16:52:35;9.07;;;8.37;;
15816;SDS011;8009;50.070;8.232;2022-10-04T17:04:06;9.43;;;8.60;;
15816;SDS011;8009;50.070;8.232;2022-10-04T17:06:52;9.25;;;8.48;;
15816;SDS011;8009;50.070;8.232;2022-10-04T17:09:24;9.70;;;8.90;;
15816;SDS011;8009;50.070;8.232;2022-10-04T17:11:59;9.50;;;8.80;;
15816;SDS011;8009;50.070;8.232;2022-10-04T17:14:45;17.00;;;15.50;;
15816;SDS011;8009;50.070;8.232;2022-10-04T17:17:27;10.20;;;9.40;;
15816;SDS011;8009;50.070;8.232;2022-10-04T17:20:11;10.03;;;9.03;;
15816;SDS011;8009;50.070;8.232;2022-10-04T17:22:52;10.50;;;9.70;;
15816;SDS011;8009;50.070;8.232;2022-10-04T17:25:32;10.70;;;9.87;;
15816;SDS011;8009;50.070;8.232;2022-10-04T17:28:14;11.30;;;10.30;;
15816;SDS011;8009;50.070;8.232;2022-10-04T17:30:57;10.20;;;9.30;;
15816;SDS011;8009;50.070;8.232;2022-10-04T17:33:32;9.90;;;8.93;;
15816;SDS011;8009;50.070;8.232;2022-10-04T17:36:13;9.03;;;8.10;;
15816;SDS011;8009;50.070;8.232;2022-10-04T17:38:59;10.73;;;9.83;;
15816;SDS011;8009;50.070;8.232;2022-10-04T17:41:39;9.67;;;8.50;;
15816;SDS011;8009;50.070;8.232;2022-10-04T17:44:25;12.47;;;11.47;;
15816;SDS011;8009;50.070;8.232;2022-10-04T17:47:04;10.67;;;9.77;;
15816;SDS011;8009;50.070;8.232;2022-10-04T17:49:39;10.23;;;9.40;;
15816;SDS011;8009;50.070;8.232;2022-10-04T17:52:33;12.70;;;11.80;;
15816;SDS011;8009;50.070;8.232;2022-10-04T17:55:24;11.20;;;10.50;;
15816;SDS011;8009;50.070;8.232;2022-10-04T17:57:57;10.73;;;9.60;;
15816;SDS011;8009;50.070;8.232;2022-10-04T18:00:45;11.20;;;10.50;;
15816;SDS011;8009;50.070;8.232;2022-10-04T18:03:17;12.03;;;11.03;;
15816;SDS011;8009;50.070;8.232;2022-10-04T18:05:48;12.33;;;11.47;;
15816;SDS011;8009;50.070;8.232;2022-10-04T18:08:24;11.60;;;10.80;;
15816;SDS011;8009;50.070;8.232;2022-10-04T18:11:12;10.50;;;9.53;;
15816;SDS011;8009;50.070;8.232;2022-10-04T18:13:48;12.00;;;11.10;;
15816;SDS011;8009;50.070;8.232;2022-10-04T18:16:25;12.77;;;10.83;;
15816;SDS011;8009;50.070;8.232;2022-10-04T18:18:56;11.93;;;10.83;;
15816;SDS011;8009;50.070;8.232;2022-10-04T18:21:50;12.50;;;11.50;;
15816;SDS011;8009;50.070;8.232;2022-10-04T18:24:26;10.97;;;10.17;;
15816;SDS011;8009;50.070;8.232;2022-10-04T18:26:57;10.83;;;9.87;;
15816;SDS011;8009;50.070;8.232;2022-10-04T18:29:35;12.20;;;11.33;;
15816;SDS011;8009;50.070;8.232;2022-10-04T18:32:14;11.83;;;10.73;;
15816;SDS011;8009;50.070;8.232;2022-10-04T18:34:58;12.20;;;11.03;;
15816;SDS011;8009;50.070;8.232;2022-10-04T18:37:31;11.87;;;10.87;;
15816;SDS011;8009;50.070;8.232;2022-10-04T18:40:09;12.03;;;11.07;;
15816;SDS011;8009;50.070;8.232;2022-10-04T18:42:46;11.50;;;10.60;;
15816;SDS011;8009;50.070;8.232;2022-10-04T18:45:20;11.50;;;10.30;;
15816;SDS011;8009;50.070;8.232;2022-10-04T18:47:57;11.77;;;10.63;;
15816;SDS011;8009;50.070;8.232;2022-10-04T18:50:34;11.00;;;10.13;;
15816;SDS011;8009;50.070;8.232;2022-10-04T18:53:13;12.03;;;10.70;;
15816;SDS011;8009;50.070;8.232;2022-10-04T18:55:57;13.20;;;12.03;;